To NAV CANADA Home Page Login to a new session Search on AWWS site Feedback and Comments Disclaimer Vers la page française équivalente Tips FAQ What's new on the site To the Forecasts and Observations / NOTAM section To "File a Flight Plan" website Publications and other links Update of the User's profile FIC Telephone Numbers My Weather Data Folder Route Weather Data Regional Weather Data Local Weather Data To the Forecasts and Observations / NOTAM section
Request Generated 02/23/2017 at 20:47:40 UTC . Weather information available at that time is displayed.

METAR/TAF

MONCTON/GREATER MONCTON INTL/NB    

METAR CYQM 232000Z 18013G18KT 15SM SCT075 BKN240 08/M00 A2973 RMK
AC3CI2 SLP072=
METAR CYQM 231900Z CCA 19013KT 15SM FEW075 SCT240 09/M00 A2974 RMK
AC2CI2 SLP076=
METAR CYQM 231900Z 19013KT 15SM FEW120 SCT240 09/M00 A2974 RMK AC2CI2
SLP076=
METAR CYQM 231800Z 16005KT 15SM FEW150 FEW240 09/01 A2976 RMK AC1CI1
CI TR SLP082=

TAF CYQM 231738Z 2318/2418 09007KT P6SM FEW150
BECMG 2318/2320 19010KT
BECMG 2400/2402 23012KT
FM240200 23012KT P6SM FEW008 SCT015 BKN040 TEMPO 2402/2407 BKN015
FM240700 24015KT 6SM BR SCT008
FM241300 25012KT P6SM SKC
RMK NXT FCST BY 240000Z=
Your time UTC time
Weather data provided by Environment Canada and NAV CANADA